sensor_id;sensor_type;location;lat;lon;timestamp;P1;durP1;ratioP1;P2;durP2;ratioP2
32038;SDS011;18549;42.286;22.688;2023-07-24T00:01:47;19.00;;;12.07;;
32038;SDS011;18549;42.286;22.688;2023-07-24T00:04:14;16.90;;;12.23;;
32038;SDS011;18549;42.286;22.688;2023-07-24T00:06:40;21.02;;;12.82;;
32038;SDS011;18549;42.286;22.688;2023-07-24T00:09:09;17.55;;;12.98;;
32038;SDS011;18549;42.286;22.688;2023-07-24T00:11:35;22.75;;;13.00;;
32038;SDS011;18549;42.286;22.688;2023-07-24T00:14:02;17.62;;;13.82;;
32038;SDS011;18549;42.286;22.688;2023-07-24T00:16:29;20.12;;;13.62;;
32038;SDS011;18549;42.286;22.688;2023-07-24T00:18:55;23.55;;;15.02;;
32038;SDS011;18549;42.286;22.688;2023-07-24T00:21:22;20.50;;;13.62;;
32038;SDS011;18549;42.286;22.688;2023-07-24T00:23:49;16.87;;;12.85;;
32038;SDS011;18549;42.286;22.688;2023-07-24T00:26:17;18.77;;;13.50;;
32038;SDS011;18549;42.286;22.688;2023-07-24T00:28:44;20.55;;;14.02;;
32038;SDS011;18549;42.286;22.688;2023-07-24T00:31:11;19.25;;;13.70;;
32038;SDS011;18549;42.286;22.688;2023-07-24T00:33:37;18.95;;;12.37;;
32038;SDS011;18549;42.286;22.688;2023-07-24T00:36:04;17.00;;;12.90;;
32038;SDS011;18549;42.286;22.688;2023-07-24T00:38:31;24.33;;;13.75;;
32038;SDS011;18549;42.286;22.688;2023-07-24T00:40:57;21.58;;;13.55;;
32038;SDS011;18549;42.286;22.688;2023-07-24T00:43:26;22.23;;;13.85;;
32038;SDS011;18549;42.286;22.688;2023-07-24T00:45:52;21.12;;;13.15;;
32038;SDS011;18549;42.286;22.688;2023-07-24T00:48:22;25.02;;;14.48;;
32038;SDS011;18549;42.286;22.688;2023-07-24T00:50:48;24.98;;;14.43;;
32038;SDS011;18549;42.286;22.688;2023-07-24T00:53:16;19.27;;;14.10;;
32038;SDS011;18549;42.286;22.688;2023-07-24T00:55:44;23.15;;;17.10;;
32038;SDS011;18549;42.286;22.688;2023-07-24T00:58:12;22.95;;;15.52;;
32038;SDS011;18549;42.286;22.688;2023-07-24T01:00:40;23.50;;;15.68;;
32038;SDS011;18549;42.286;22.688;2023-07-24T01:03:07;23.92;;;16.27;;
32038;SDS011;18549;42.286;22.688;2023-07-24T01:05:34;22.85;;;15.90;;
32038;SDS011;18549;42.286;22.688;2023-07-24T01:08:01;28.70;;;17.77;;
32038;SDS011;18549;42.286;22.688;2023-07-24T01:10:28;28.38;;;16.75;;
32038;SDS011;18549;42.286;22.688;2023-07-24T01:13:01;27.20;;;17.30;;
32038;SDS011;18549;42.286;22.688;2023-07-24T01:15:31;21.12;;;14.05;;
32038;SDS011;18549;42.286;22.688;2023-07-24T01:18:03;17.23;;;12.30;;
32038;SDS011;18549;42.286;22.688;2023-07-24T01:20:35;19.85;;;13.35;;
32038;SDS011;18549;42.286;22.688;2023-07-24T01:23:20;21.58;;;14.30;;
32038;SDS011;18549;42.286;22.688;2023-07-24T01:25:56;16.77;;;12.32;;
32038;SDS011;18549;42.286;22.688;2023-07-24T01:28:23;18.42;;;12.85;;
32038;SDS011;18549;42.286;22.688;2023-07-24T01:30:50;21.42;;;13.55;;
32038;SDS011;18549;42.286;22.688;2023-07-24T01:33:17;22.92;;;14.32;;
32038;SDS011;18549;42.286;22.688;2023-07-24T01:35:44;18.58;;;13.52;;
32038;SDS011;18549;42.286;22.688;2023-07-24T01:38:11;18.12;;;12.73;;
32038;SDS011;18549;42.286;22.688;2023-07-24T01:40:39;18.55;;;12.60;;
32038;SDS011;18549;42.286;22.688;2023-07-24T01:43:08;20.73;;;13.32;;
32038;SDS011;18549;42.286;22.688;2023-07-24T01:45:34;21.20;;;13.40;;
32038;SDS011;18549;42.286;22.688;2023-07-24T01:48:03;21.60;;;12.60;;
32038;SDS011;18549;42.286;22.688;2023-07-24T01:50:30;17.67;;;12.93;;
32038;SDS011;18549;42.286;22.688;2023-07-24T01:52:57;21.45;;;12.30;;
32038;SDS011;18549;42.286;22.688;2023-07-24T01:55:23;17.45;;;13.73;;
32038;SDS011;18549;42.286;22.688;2023-07-24T01:57:50;16.70;;;12.23;;
32038;SDS011;18549;42.286;22.688;2023-07-24T02:00:19;22.85;;;13.85;;
32038;SDS011;18549;42.286;22.688;2023-07-24T02:02:46;18.80;;;13.90;;
32038;SDS011;18549;42.286;22.688;2023-07-24T02:05:13;18.67;;;13.02;;
32038;SDS011;18549;42.286;22.688;2023-07-24T02:07:39;20.33;;;13.07;;
32038;SDS011;18549;42.286;22.688;2023-07-24T02:10:07;23.48;;;13.90;;
32038;SDS011;18549;42.286;22.688;2023-07-24T02:12:34;18.23;;;13.13;;
32038;SDS011;18549;42.286;22.688;2023-07-24T02:15:01;17.60;;;12.77;;
32038;SDS011;18549;42.286;22.688;2023-07-24T02:17:29;19.00;;;13.95;;
32038;SDS011;18549;42.286;22.688;2023-07-24T02:19:55;17.92;;;13.05;;
32038;SDS011;18549;42.286;22.688;2023-07-24T02:22:22;22.45;;;14.48;;
32038;SDS011;18549;42.286;22.688;2023-07-24T02:24:50;22.45;;;14.68;;
32038;SDS011;18549;42.286;22.688;2023-07-24T02:27:24;22.23;;;15.40;;
32038;SDS011;18549;42.286;22.688;2023-07-24T02:29:52;20.35;;;13.75;;
32038;SDS011;18549;42.286;22.688;2023-07-24T02:32:19;26.48;;;14.40;;
32038;SDS011;18549;42.286;22.688;2023-07-24T02:34:48;21.37;;;14.23;;
32038;SDS011;18549;42.286;22.688;2023-07-24T02:37:15;22.35;;;14.30;;
32038;SDS011;18549;42.286;22.688;2023-07-24T02:39:42;22.67;;;13.82;;
32038;SDS011;18549;42.286;22.688;2023-07-24T02:42:09;19.80;;;14.27;;
32038;SDS011;18549;42.286;22.688;2023-07-24T02:44:35;21.85;;;14.70;;
32038;SDS011;18549;42.286;22.688;2023-07-24T02:47:02;20.33;;;15.25;;
32038;SDS011;18549;42.286;22.688;2023-07-24T02:49:29;23.08;;;15.55;;
32038;SDS011;18549;42.286;22.688;2023-07-24T02:51:58;26.50;;;15.88;;
32038;SDS011;18549;42.286;22.688;2023-07-24T02:54:25;23.85;;;15.73;;
32038;SDS011;18549;42.286;22.688;2023-07-24T02:56:51;25.40;;;17.75;;
32038;SDS011;18549;42.286;22.688;2023-07-24T02:59:18;21.60;;;15.40;;
32038;SDS011;18549;42.286;22.688;2023-07-24T03:01:45;25.67;;;15.88;;
32038;SDS011;18549;42.286;22.688;2023-07-24T03:04:12;22.15;;;16.10;;
32038;SDS011;18549;42.286;22.688;2023-07-24T03:06:38;25.85;;;16.60;;
32038;SDS011;18549;42.286;22.688;2023-07-24T03:09:07;21.45;;;15.85;;
32038;SDS011;18549;42.286;22.688;2023-07-24T03:11:33;22.52;;;15.38;;
32038;SDS011;18549;42.286;22.688;2023-07-24T03:14:00;23.87;;;14.18;;
32038;SDS011;18549;42.286;22.688;2023-07-24T03:16:27;20.37;;;14.77;;
32038;SDS011;18549;42.286;22.688;2023-07-24T03:18:53;24.83;;;15.73;;
32038;SDS011;18549;42.286;22.688;2023-07-24T03:21:20;25.00;;;15.18;;
32038;SDS011;18549;42.286;22.688;2023-07-24T03:23:47;24.98;;;15.15;;
32038;SDS011;18549;42.286;22.688;2023-07-24T03:26:15;26.35;;;16.00;;
32038;SDS011;18549;42.286;22.688;2023-07-24T03:28:42;29.00;;;15.35;;
32038;SDS011;18549;42.286;22.688;2023-07-24T03:31:09;27.67;;;15.30;;
32038;SDS011;18549;42.286;22.688;2023-07-24T03:33:35;21.12;;;14.45;;
32038;SDS011;18549;42.286;22.688;2023-07-24T03:36:02;21.33;;;14.98;;
32038;SDS011;18549;42.286;22.688;2023-07-24T03:38:29;28.92;;;16.98;;
32038;SDS011;18549;42.286;22.688;2023-07-24T03:40:56;30.83;;;16.00;;
32038;SDS011;18549;42.286;22.688;2023-07-24T03:43:24;19.87;;;13.98;;
32038;SDS011;18549;42.286;22.688;2023-07-24T03:45:51;27.15;;;15.60;;
32038;SDS011;18549;42.286;22.688;2023-07-24T03:48:17;25.95;;;15.23;;
32038;SDS011;18549;42.286;22.688;2023-07-24T03:50:44;23.98;;;15.80;;
32038;SDS011;18549;42.286;22.688;2023-07-24T03:53:11;27.42;;;15.73;;
32038;SDS011;18549;42.286;22.688;2023-07-24T03:55:38;23.52;;;15.82;;
32038;SDS011;18549;42.286;22.688;2023-07-24T03:58:04;20.88;;;15.32;;
32038;SDS011;18549;42.286;22.688;2023-07-24T04:00:32;23.33;;;14.77;;
32038;SDS011;18549;42.286;22.688;2023-07-24T04:02:59;33.03;;;15.52;;
32038;SDS011;18549;42.286;22.688;2023-07-24T04:05:26;25.75;;;15.55;;
32038;SDS011;18549;42.286;22.688;2023-07-24T04:07:53;24.95;;;16.30;;
32038;SDS011;18549;42.286;22.688;2023-07-24T04:10:20;27.15;;;15.98;;
32038;SDS011;18549;42.286;22.688;2023-07-24T04:12:47;23.25;;;15.52;;
32038;SDS011;18549;42.286;22.688;2023-07-24T04:15:14;25.23;;;16.33;;
32038;SDS011;18549;42.286;22.688;2023-07-24T04:17:42;27.67;;;16.25;;
32038;SDS011;18549;42.286;22.688;2023-07-24T04:20:09;33.03;;;15.90;;
32038;SDS011;18549;42.286;22.688;2023-07-24T04:22:36;31.12;;;16.10;;
32038;SDS011;18549;42.286;22.688;2023-07-24T04:25:03;21.37;;;15.38;;
32038;SDS011;18549;42.286;22.688;2023-07-24T04:27:30;29.37;;;16.48;;
32038;SDS011;18549;42.286;22.688;2023-07-24T04:29:57;28.23;;;16.45;;
32038;SDS011;18549;42.286;22.688;2023-07-24T04:32:25;25.98;;;15.60;;
32038;SDS011;18549;42.286;22.688;2023-07-24T04:34:53;22.40;;;16.02;;
32038;SDS011;18549;42.286;22.688;2023-07-24T04:37:20;27.40;;;16.20;;
32038;SDS011;18549;42.286;22.688;2023-07-24T04:39:47;40.10;;;17.02;;
32038;SDS011;18549;42.286;22.688;2023-07-24T04:42:13;26.15;;;16.33;;
32038;SDS011;18549;42.286;22.688;2023-07-24T04:44:40;29.40;;;15.85;;
32038;SDS011;18549;42.286;22.688;2023-07-24T04:47:07;28.77;;;15.18;;
32038;SDS011;18549;42.286;22.688;2023-07-24T04:49:34;38.50;;;15.82;;
32038;SDS011;18549;42.286;22.688;2023-07-24T04:52:02;30.52;;;16.40;;
32038;SDS011;18549;42.286;22.688;2023-07-24T04:54:29;27.75;;;16.00;;
32038;SDS011;18549;42.286;22.688;2023-07-24T04:56:56;26.12;;;15.68;;
32038;SDS011;18549;42.286;22.688;2023-07-24T04:59:22;26.35;;;14.95;;
32038;SDS011;18549;42.286;22.688;2023-07-24T05:01:50;23.38;;;15.98;;
32038;SDS011;18549;42.286;22.688;2023-07-24T05:04:16;25.25;;;15.60;;
32038;SDS011;18549;42.286;22.688;2023-07-24T05:06:43;35.20;;;16.02;;
32038;SDS011;18549;42.286;22.688;2023-07-24T05:09:11;28.65;;;16.30;;
32038;SDS011;18549;42.286;22.688;2023-07-24T05:11:39;29.83;;;16.52;;
32038;SDS011;18549;42.286;22.688;2023-07-24T05:14:07;27.20;;;16.35;;
32038;SDS011;18549;42.286;22.688;2023-07-24T05:16:33;26.67;;;16.37;;
32038;SDS011;18549;42.286;22.688;2023-07-24T05:19:00;27.27;;;15.75;;
32038;SDS011;18549;42.286;22.688;2023-07-24T05:21:27;28.60;;;15.75;;
32038;SDS011;18549;42.286;22.688;2023-07-24T05:23:53;23.98;;;14.07;;
32038;SDS011;18549;42.286;22.688;2023-07-24T05:26:22;25.98;;;16.00;;
32038;SDS011;18549;42.286;22.688;2023-07-24T05:28:48;26.60;;;16.95;;
32038;SDS011;18549;42.286;22.688;2023-07-24T05:31:15;28.62;;;17.20;;
32038;SDS011;18549;42.286;22.688;2023-07-24T05:33:42;25.23;;;15.45;;
32038;SDS011;18549;42.286;22.688;2023-07-24T05:36:08;31.62;;;16.77;;
32038;SDS011;18549;42.286;22.688;2023-07-24T05:38:35;40.58;;;20.27;;
32038;SDS011;18549;42.286;22.688;2023-07-24T05:41:02;29.23;;;17.02;;
32038;SDS011;18549;42.286;22.688;2023-07-24T05:43:31;24.87;;;15.82;;
32038;SDS011;18549;42.286;22.688;2023-07-24T05:45:58;27.98;;;16.37;;
32038;SDS011;18549;42.286;22.688;2023-07-24T05:48:25;25.45;;;15.13;;
32038;SDS011;18549;42.286;22.688;2023-07-24T05:50:52;29.35;;;16.90;;
32038;SDS011;18549;42.286;22.688;2023-07-24T05:53:19;28.60;;;15.75;;
32038;SDS011;18549;42.286;22.688;2023-07-24T05:55:45;28.05;;;15.68;;
32038;SDS011;18549;42.286;22.688;2023-07-24T05:58:12;22.37;;;15.63;;
32038;SDS011;18549;42.286;22.688;2023-07-24T06:00:40;30.35;;;14.35;;
32038;SDS011;18549;42.286;22.688;2023-07-24T06:03:07;27.52;;;15.73;;
32038;SDS011;18549;42.286;22.688;2023-07-24T06:05:34;24.08;;;15.18;;
32038;SDS011;18549;42.286;22.688;2023-07-24T06:08:00;26.45;;;15.52;;
32038;SDS011;18549;42.286;22.688;2023-07-24T06:10:27;23.67;;;15.30;;
32038;SDS011;18549;42.286;22.688;2023-07-24T06:12:54;25.92;;;15.85;;
32038;SDS011;18549;42.286;22.688;2023-07-24T06:15:20;21.90;;;15.13;;
32038;SDS011;18549;42.286;22.688;2023-07-24T06:17:48;24.70;;;15.90;;
32038;SDS011;18549;42.286;22.688;2023-07-24T06:20:15;24.30;;;15.70;;
32038;SDS011;18549;42.286;22.688;2023-07-24T06:22:42;24.02;;;16.58;;
32038;SDS011;18549;42.286;22.688;2023-07-24T06:25:09;26.95;;;15.95;;
32038;SDS011;18549;42.286;22.688;2023-07-24T06:27:35;21.42;;;15.32;;
32038;SDS011;18549;42.286;22.688;2023-07-24T06:30:03;25.40;;;15.95;;
32038;SDS011;18549;42.286;22.688;2023-07-24T06:32:30;29.02;;;16.52;;
32038;SDS011;18549;42.286;22.688;2023-07-24T06:34:58;27.95;;;15.93;;
32038;SDS011;18549;42.286;22.688;2023-07-24T06:37:25;25.35;;;16.73;;
32038;SDS011;18549;42.286;22.688;2023-07-24T06:39:51;33.75;;;15.80;;
32038;SDS011;18549;42.286;22.688;2023-07-24T06:42:18;22.50;;;15.80;;
32038;SDS011;18549;42.286;22.688;2023-07-24T06:44:45;21.62;;;16.70;;
32038;SDS011;18549;42.286;22.688;2023-07-24T06:47:11;29.17;;;15.32;;
32038;SDS011;18549;42.286;22.688;2023-07-24T06:49:38;27.70;;;16.25;;
32038;SDS011;18549;42.286;22.688;2023-07-24T06:52:06;21.95;;;17.00;;
32038;SDS011;18549;42.286;22.688;2023-07-24T06:54:33;23.58;;;15.13;;
32038;SDS011;18549;42.286;22.688;2023-07-24T06:57:00;24.52;;;15.05;;
32038;SDS011;18549;42.286;22.688;2023-07-24T06:59:27;30.67;;;17.85;;
32038;SDS011;18549;42.286;22.688;2023-07-24T07:01:53;25.52;;;16.62;;
32038;SDS011;18549;42.286;22.688;2023-07-24T07:04:20;24.42;;;17.27;;
32038;SDS011;18549;42.286;22.688;2023-07-24T07:06:47;27.80;;;16.80;;
32038;SDS011;18549;42.286;22.688;2023-07-24T07:09:15;27.13;;;16.83;;
32038;SDS011;18549;42.286;22.688;2023-07-24T07:11:41;31.25;;;16.95;;
32038;SDS011;18549;42.286;22.688;2023-07-24T07:14:09;26.20;;;15.98;;
32038;SDS011;18549;42.286;22.688;2023-07-24T07:16:37;24.20;;;15.77;;
32038;SDS011;18549;42.286;22.688;2023-07-24T07:19:05;26.75;;;16.52;;
32038;SDS011;18549;42.286;22.688;2023-07-24T07:21:34;24.52;;;16.50;;
32038;SDS011;18549;42.286;22.688;2023-07-24T07:24:01;22.42;;;16.35;;
32038;SDS011;18549;42.286;22.688;2023-07-24T07:26:29;25.83;;;16.87;;
32038;SDS011;18549;42.286;22.688;2023-07-24T07:28:56;25.70;;;16.33;;
32038;SDS011;18549;42.286;22.688;2023-07-24T07:31:23;22.27;;;15.98;;
32038;SDS011;18549;42.286;22.688;2023-07-24T07:33:49;27.23;;;17.20;;
32038;SDS011;18549;42.286;22.688;2023-07-24T07:36:16;22.83;;;16.70;;
32038;SDS011;18549;42.286;22.688;2023-07-24T07:38:43;24.52;;;16.25;;
32038;SDS011;18549;42.286;22.688;2023-07-24T07:41:10;28.52;;;16.35;;
32038;SDS011;18549;42.286;22.688;2023-07-24T07:43:38;24.40;;;17.20;;
32038;SDS011;18549;42.286;22.688;2023-07-24T07:46:05;27.52;;;17.17;;
32038;SDS011;18549;42.286;22.688;2023-07-24T07:48:32;23.80;;;15.77;;
32038;SDS011;18549;42.286;22.688;2023-07-24T07:50:58;25.17;;;16.00;;
32038;SDS011;18549;42.286;22.688;2023-07-24T07:53:25;21.62;;;15.73;;
32038;SDS011;18549;42.286;22.688;2023-07-24T07:55:55;24.48;;;16.58;;
32038;SDS011;18549;42.286;22.688;2023-07-24T07:58:23;21.62;;;16.67;;
32038;SDS011;18549;42.286;22.688;2023-07-24T08:00:51;26.67;;;16.33;;
32038;SDS011;18549;42.286;22.688;2023-07-24T08:03:18;27.40;;;16.83;;
32038;SDS011;18549;42.286;22.688;2023-07-24T08:05:45;24.90;;;17.27;;
32038;SDS011;18549;42.286;22.688;2023-07-24T08:08:11;25.48;;;15.38;;
32038;SDS011;18549;42.286;22.688;2023-07-24T08:10:38;21.02;;;16.77;;
32038;SDS011;18549;42.286;22.688;2023-07-24T08:13:05;25.00;;;15.82;;
32038;SDS011;18549;42.286;22.688;2023-07-24T08:15:33;29.52;;;17.42;;
32038;SDS011;18549;42.286;22.688;2023-07-24T08:18:03;22.70;;;15.65;;
32038;SDS011;18549;42.286;22.688;2023-07-24T08:20:30;25.00;;;16.52;;
32038;SDS011;18549;42.286;22.688;2023-07-24T08:22:57;21.10;;;14.07;;
32038;SDS011;18549;42.286;22.688;2023-07-24T08:25:24;20.75;;;14.70;;
32038;SDS011;18549;42.286;22.688;2023-07-24T08:27:50;24.63;;;16.35;;
32038;SDS011;18549;42.286;22.688;2023-07-24T08:30:17;24.55;;;15.57;;
32038;SDS011;18549;42.286;22.688;2023-07-24T08:32:44;22.08;;;14.80;;
32038;SDS011;18549;42.286;22.688;2023-07-24T08:35:12;22.20;;;14.77;;
32038;SDS011;18549;42.286;22.688;2023-07-24T08:37:42;24.23;;;16.45;;
32038;SDS011;18549;42.286;22.688;2023-07-24T08:40:09;25.27;;;14.77;;
32038;SDS011;18549;42.286;22.688;2023-07-24T08:42:38;26.73;;;16.37;;
32038;SDS011;18549;42.286;22.688;2023-07-24T08:45:08;29.55;;;16.27;;
32038;SDS011;18549;42.286;22.688;2023-07-24T08:47:37;22.48;;;16.45;;
32038;SDS011;18549;42.286;22.688;2023-07-24T08:50:06;22.27;;;15.93;;
32038;SDS011;18549;42.286;22.688;2023-07-24T08:52:37;23.52;;;15.80;;
32038;SDS011;18549;42.286;22.688;2023-07-24T08:55:04;23.00;;;15.43;;
32038;SDS011;18549;42.286;22.688;2023-07-24T08:57:32;21.87;;;14.77;;
32038;SDS011;18549;42.286;22.688;2023-07-24T08:59:59;22.33;;;15.60;;
32038;SDS011;18549;42.286;22.688;2023-07-24T09:02:29;21.50;;;15.25;;
32038;SDS011;18549;42.286;22.688;2023-07-24T09:04:56;23.30;;;14.95;;
32038;SDS011;18549;42.286;22.688;2023-07-24T09:07:23;20.40;;;14.90;;
32038;SDS011;18549;42.286;22.688;2023-07-24T09:09:51;22.87;;;15.43;;
32038;SDS011;18549;42.286;22.688;2023-07-24T09:12:18;25.15;;;13.95;;
32038;SDS011;18549;42.286;22.688;2023-07-24T09:14:45;21.27;;;14.35;;
32038;SDS011;18549;42.286;22.688;2023-07-24T09:17:12;22.37;;;14.27;;
32038;SDS011;18549;42.286;22.688;2023-07-24T09:19:38;22.70;;;15.32;;
32038;SDS011;18549;42.286;22.688;2023-07-24T09:22:12;18.77;;;14.32;;
32038;SDS011;18549;42.286;22.688;2023-07-24T09:24:48;25.05;;;14.00;;
32038;SDS011;18549;42.286;22.688;2023-07-24T09:27:18;21.92;;;14.40;;
32038;SDS011;18549;42.286;22.688;2023-07-24T09:29:45;28.73;;;14.18;;
32038;SDS011;18549;42.286;22.688;2023-07-24T09:32:18;18.73;;;14.13;;
32038;SDS011;18549;42.286;22.688;2023-07-24T09:34:46;23.10;;;12.98;;
32038;SDS011;18549;42.286;22.688;2023-07-24T09:37:22;17.80;;;13.52;;
32038;SDS011;18549;42.286;22.688;2023-07-24T09:39:50;22.65;;;14.40;;
32038;SDS011;18549;42.286;22.688;2023-07-24T09:42:18;19.20;;;13.77;;
32038;SDS011;18549;42.286;22.688;2023-07-24T09:44:53;36.30;;;14.10;;
32038;SDS011;18549;42.286;22.688;2023-07-24T09:47:20;20.80;;;13.13;;
32038;SDS011;18549;42.286;22.688;2023-07-24T09:49:47;23.60;;;14.23;;
32038;SDS011;18549;42.286;22.688;2023-07-24T09:52:14;25.15;;;14.57;;
32038;SDS011;18549;42.286;22.688;2023-07-24T09:54:46;18.60;;;13.65;;
32038;SDS011;18549;42.286;22.688;2023-07-24T09:57:22;19.77;;;13.80;;
32038;SDS011;18549;42.286;22.688;2023-07-24T09:59:50;20.30;;;12.65;;
32038;SDS011;18549;42.286;22.688;2023-07-24T10:02:18;16.30;;;12.57;;
32038;SDS011;18549;42.286;22.688;2023-07-24T10:04:45;18.65;;;12.60;;
32038;SDS011;18549;42.286;22.688;2023-07-24T10:07:13;24.40;;;14.32;;
32038;SDS011;18549;42.286;22.688;2023-07-24T10:09:40;18.80;;;12.30;;
32038;SDS011;18549;42.286;22.688;2023-07-24T10:12:08;18.50;;;13.13;;
32038;SDS011;18549;42.286;22.688;2023-07-24T10:14:37;16.95;;;12.40;;
32038;SDS011;18549;42.286;22.688;2023-07-24T10:17:04;21.77;;;12.47;;
32038;SDS011;18549;42.286;22.688;2023-07-24T10:19:39;19.35;;;12.95;;
32038;SDS011;18549;42.286;22.688;2023-07-24T10:22:08;16.37;;;12.00;;
32038;SDS011;18549;42.286;22.688;2023-07-24T10:24:35;15.98;;;11.55;;
32038;SDS011;18549;42.286;22.688;2023-07-24T10:27:02;19.45;;;12.77;;
32038;SDS011;18549;42.286;22.688;2023-07-24T10:29:33;26.73;;;12.98;;
32038;SDS011;18549;42.286;22.688;2023-07-24T10:32:02;19.33;;;11.95;;
32038;SDS011;18549;42.286;22.688;2023-07-24T10:34:36;18.23;;;12.37;;
32038;SDS011;18549;42.286;22.688;2023-07-24T10:37:06;17.62;;;11.07;;
32038;SDS011;18549;42.286;22.688;2023-07-24T10:39:37;16.70;;;10.88;;
32038;SDS011;18549;42.286;22.688;2023-07-24T10:42:05;16.40;;;11.12;;
32038;SDS011;18549;42.286;22.688;2023-07-24T10:44:33;16.77;;;11.73;;
32038;SDS011;18549;42.286;22.688;2023-07-24T10:47:01;19.87;;;10.75;;
32038;SDS011;18549;42.286;22.688;2023-07-24T10:49:29;16.70;;;11.25;;
32038;SDS011;18549;42.286;22.688;2023-07-24T10:51:56;20.45;;;10.85;;
32038;SDS011;18549;42.286;22.688;2023-07-24T10:54:22;15.18;;;10.23;;
32038;SDS011;18549;42.286;22.688;2023-07-24T10:56:49;15.52;;;10.10;;
32038;SDS011;18549;42.286;22.688;2023-07-24T10:59:16;16.33;;;10.65;;
32038;SDS011;18549;42.286;22.688;2023-07-24T11:01:43;16.12;;;8.55;;
32038;SDS011;18549;42.286;22.688;2023-07-24T11:04:11;16.87;;;8.55;;
32038;SDS011;18549;42.286;22.688;2023-07-24T11:06:38;15.45;;;8.15;;
32038;SDS011;18549;42.286;22.688;2023-07-24T11:09:04;18.42;;;8.35;;
32038;SDS011;18549;42.286;22.688;2023-07-24T11:11:31;17.02;;;9.45;;
32038;SDS011;18549;42.286;22.688;2023-07-24T11:13:59;11.80;;;8.25;;
32038;SDS011;18549;42.286;22.688;2023-07-24T11:16:27;13.57;;;8.90;;
32038;SDS011;18549;42.286;22.688;2023-07-24T11:18:55;14.65;;;8.63;;
32038;SDS011;18549;42.286;22.688;2023-07-24T11:21:23;19.05;;;8.25;;
32038;SDS011;18549;42.286;22.688;2023-07-24T11:23:50;17.35;;;8.98;;
32038;SDS011;18549;42.286;22.688;2023-07-24T11:26:18;13.80;;;8.55;;
32038;SDS011;18549;42.286;22.688;2023-07-24T11:28:46;18.25;;;8.68;;
32038;SDS011;18549;42.286;22.688;2023-07-24T11:31:13;26.52;;;8.25;;
32038;SDS011;18549;42.286;22.688;2023-07-24T11:33:41;15.95;;;7.97;;
32038;SDS011;18549;42.286;22.688;2023-07-24T11:36:09;16.80;;;8.80;;
32038;SDS011;18549;42.286;22.688;2023-07-24T11:38:39;19.95;;;9.48;;
32038;SDS011;18549;42.286;22.688;2023-07-24T11:41:05;14.93;;;8.57;;
32038;SDS011;18549;42.286;22.688;2023-07-24T11:43:34;23.08;;;9.93;;
32038;SDS011;18549;42.286;22.688;2023-07-24T11:46:01;17.27;;;9.18;;
32038;SDS011;18549;42.286;22.688;2023-07-24T11:48:28;16.98;;;10.20;;
32038;SDS011;18549;42.286;22.688;2023-07-24T11:50:56;19.40;;;9.80;;
32038;SDS011;18549;42.286;22.688;2023-07-24T11:53:23;13.93;;;9.02;;
32038;SDS011;18549;42.286;22.688;2023-07-24T11:55:52;17.77;;;9.00;;
32038;SDS011;18549;42.286;22.688;2023-07-24T11:58:20;19.20;;;9.45;;
32038;SDS011;18549;42.286;22.688;2023-07-24T12:00:48;16.45;;;9.63;;
32038;SDS011;18549;42.286;22.688;2023-07-24T12:03:18;18.92;;;10.30;;
32038;SDS011;18549;42.286;22.688;2023-07-24T12:05:45;15.75;;;9.60;;
32038;SDS011;18549;42.286;22.688;2023-07-24T12:08:12;15.07;;;9.48;;
32038;SDS011;18549;42.286;22.688;2023-07-24T12:10:40;16.80;;;8.15;;
32038;SDS011;18549;42.286;22.688;2023-07-24T12:13:08;14.98;;;9.35;;
32038;SDS011;18549;42.286;22.688;2023-07-24T12:15:36;18.27;;;10.38;;
32038;SDS011;18549;42.286;22.688;2023-07-24T12:18:03;17.65;;;10.48;;
32038;SDS011;18549;42.286;22.688;2023-07-24T12:20:30;17.33;;;9.25;;
32038;SDS011;18549;42.286;22.688;2023-07-24T12:22:57;18.37;;;8.68;;
32038;SDS011;18549;42.286;22.688;2023-07-24T12:25:24;14.87;;;8.75;;
32038;SDS011;18549;42.286;22.688;2023-07-24T12:27:51;18.17;;;9.32;;
32038;SDS011;18549;42.286;22.688;2023-07-24T12:30:19;15.30;;;8.55;;
32038;SDS011;18549;42.286;22.688;2023-07-24T12:32:46;24.10;;;9.32;;
32038;SDS011;18549;42.286;22.688;2023-07-24T12:35:12;17.87;;;9.43;;
32038;SDS011;18549;42.286;22.688;2023-07-24T12:37:39;15.38;;;9.00;;
32038;SDS011;18549;42.286;22.688;2023-07-24T12:40:07;14.95;;;8.73;;
32038;SDS011;18549;42.286;22.688;2023-07-24T12:42:35;20.85;;;8.85;;
32038;SDS011;18549;42.286;22.688;2023-07-24T12:45:01;12.77;;;7.87;;
32038;SDS011;18549;42.286;22.688;2023-07-24T12:47:30;15.38;;;8.27;;
32038;SDS011;18549;42.286;22.688;2023-07-24T12:49:57;16.70;;;8.70;;
32038;SDS011;18549;42.286;22.688;2023-07-24T12:52:24;12.00;;;9.05;;
32038;SDS011;18549;42.286;22.688;2023-07-24T12:54:51;11.52;;;7.78;;
32038;SDS011;18549;42.286;22.688;2023-07-24T12:57:18;19.80;;;9.55;;
32038;SDS011;18549;42.286;22.688;2023-07-24T12:59:45;13.07;;;7.87;;
32038;SDS011;18549;42.286;22.688;2023-07-24T13:02:11;12.05;;;8.15;;
32038;SDS011;18549;42.286;22.688;2023-07-24T13:04:40;16.00;;;9.18;;
32038;SDS011;18549;42.286;22.688;2023-07-24T13:07:07;16.45;;;8.65;;
32038;SDS011;18549;42.286;22.688;2023-07-24T13:09:35;20.58;;;9.20;;
32038;SDS011;18549;42.286;22.688;2023-07-24T13:12:01;16.62;;;8.00;;
32038;SDS011;18549;42.286;22.688;2023-07-24T13:14:28;13.25;;;9.02;;
32038;SDS011;18549;42.286;22.688;2023-07-24T13:16:55;12.85;;;8.43;;
32038;SDS011;18549;42.286;22.688;2023-07-24T13:19:21;13.60;;;8.38;;
32038;SDS011;18549;42.286;22.688;2023-07-24T13:21:50;17.50;;;8.40;;
32038;SDS011;18549;42.286;22.688;2023-07-24T13:24:16;18.70;;;9.70;;
32038;SDS011;18549;42.286;22.688;2023-07-24T13:26:43;18.62;;;8.20;;
32038;SDS011;18549;42.286;22.688;2023-07-24T13:29:10;14.45;;;8.50;;
32038;SDS011;18549;42.286;22.688;2023-07-24T13:31:36;12.23;;;7.60;;
32038;SDS011;18549;42.286;22.688;2023-07-24T13:34:05;18.05;;;8.95;;
32038;SDS011;18549;42.286;22.688;2023-07-24T13:36:32;19.10;;;8.02;;
32038;SDS011;18549;42.286;22.688;2023-07-24T13:39:00;16.00;;;8.18;;
32038;SDS011;18549;42.286;22.688;2023-07-24T13:41:27;22.48;;;8.48;;
32038;SDS011;18549;42.286;22.688;2023-07-24T13:43:54;18.50;;;8.48;;
32038;SDS011;18549;42.286;22.688;2023-07-24T13:46:21;19.20;;;8.93;;
32038;SDS011;18549;42.286;22.688;2023-07-24T13:48:48;16.73;;;8.50;;
32038;SDS011;18549;42.286;22.688;2023-07-24T13:51:15;10.68;;;7.72;;
32038;SDS011;18549;42.286;22.688;2023-07-24T13:53:42;15.25;;;8.38;;
32038;SDS011;18549;42.286;22.688;2023-07-24T13:56:10;23.70;;;8.18;;
32038;SDS011;18549;42.286;22.688;2023-07-24T13:58:36;14.20;;;8.88;;
32038;SDS011;18549;42.286;22.688;2023-07-24T14:01:03;10.02;;;8.55;;
32038;SDS011;18549;42.286;22.688;2023-07-24T14:03:32;12.90;;;8.55;;
32038;SDS011;18549;42.286;22.688;2023-07-24T14:05:59;13.80;;;7.55;;
32038;SDS011;18549;42.286;22.688;2023-07-24T14:08:25;21.92;;;8.88;;
32038;SDS011;18549;42.286;22.688;2023-07-24T14:10:52;10.93;;;7.87;;
32038;SDS011;18549;42.286;22.688;2023-07-24T14:13:20;21.87;;;8.68;;